Time;durP1;ratioP1;P1;durP2;ratioP2;P2;SDS_P1;SDS_P2;PMS_P1;PMS_P2;Temp;Humidity;BMP_temperature;BMP_pressure;BME280_temperature;BME280_humidity;BME280_pressure;Samples;Min_cycle;Max_cycle;Signal;HPM_P1;HPM_P2
2022/10/08 00:00:59;;;;;;;4.03;2.90;;;13.20;74.20;;;;;;5059813;28;20029;-83
2022/10/08 00:03:27;;;;;;;5.35;2.97;;;13.20;74.20;;;;;;5076125;28;20077;-82
2022/10/08 00:06:02;;;;;;;5.75;3.40;;;13.20;74.30;;;;;;5075700;28;20035;-82
2022/10/08 00:08:29;;;;;;;8.75;2.92;;;13.30;74.80;;;;;;5071202;28;20036;-82
2022/10/08 00:10:57;;;;;;;6.75;3.47;;;13.30;74.60;;;;;;5057352;28;20028;-82
2022/10/08 00:13:24;;;;;;;6.80;3.25;;;13.30;74.50;;;;;;5072425;28;20029;-82
2022/10/08 00:15:51;;;;;;;6.82;2.92;;;13.30;75.10;;;;;;5055849;28;20025;-83
2022/10/08 00:18:17;;;;;;;4.40;2.97;;;13.30;75.50;;;;;;5058087;28;20029;-83
2022/10/08 00:20:43;;;;;;;3.85;2.90;;;13.40;75.60;;;;;;5072365;28;20078;-82
2022/10/08 00:23:08;;;;;;;4.43;3.17;;;13.50;75.60;;;;;;5080631;28;20104;-82
2022/10/08 00:25:42;;;;;;;6.97;3.30;;;13.50;75.60;;;;;;5085761;28;20506;-83
2022/10/08 00:28:12;;;;;;;7.97;3.42;;;13.50;75.50;;;;;;5072281;28;20040;-82
2022/10/08 00:30:40;;;;;;;8.27;2.88;;;13.50;74.60;;;;;;5056703;28;20392;-82
2022/10/08 00:33:12;;;;;;;4.13;3.38;;;13.50;75.40;;;;;;5056684;28;20442;-83
2022/10/08 00:35:39;;;;;;;9.73;3.20;;;13.50;75.60;;;;;;5056995;28;20021;-83
2022/10/08 00:38:06;;;;;;;9.10;3.30;;;13.50;75.50;;;;;;5056453;28;20059;-82
2022/10/08 00:40:41;;;;;;;7.00;3.65;;;13.50;75.50;;;;;;5072116;28;20025;-83
2022/10/08 00:43:15;;;;;;;8.45;3.55;;;13.50;75.80;;;;;;5056455;28;20029;-82
2022/10/08 00:45:43;;;;;;;5.45;2.90;;;13.60;75.40;;;;;;5056134;28;20411;-83
2022/10/08 00:48:24;;;;;;;4.82;2.97;;;13.60;75.60;;;;;;5056032;28;20037;-82
2022/10/08 00:50:50;;;;;;;;;;;13.60;75.60;;;;;;5056880;28;20472;-82
2022/10/08 00:53:16;;;;;;;3.25;2.40;;;13.70;75.50;;;;;;5056402;28;20087;-83
2022/10/08 00:55:42;;;;;;;7.78;2.65;;;13.70;75.70;;;;;;5056075;28;20052;-82
2022/10/08 00:58:15;;;;;;;10.02;3.03;;;13.70;75.90;;;;;;5056309;28;20476;-82
2022/10/08 01:00:43;;;;;;;5.03;3.25;;;13.70;75.70;;;;;;5071626;28;20033;-82
2022/10/08 01:03:08;;;;;;;7.47;3.00;;;13.70;75.70;;;;;;5055564;28;20091;-83
2022/10/08 01:05:57;;;;;;;5.07;2.85;;;13.70;75.60;;;;;;5055920;28;20029;-83
2022/10/08 01:08:38;;;;;;;7.93;2.78;;;13.70;75.90;;;;;;5071531;28;20025;-83
2022/10/08 01:11:24;;;;;;;4.65;2.75;;;13.80;75.70;;;;;;5055737;28;20048;-83
2022/10/08 01:14:21;;;;;;;7.40;3.05;;;13.80;75.80;;;;;;5071642;28;20017;-82
2022/10/08 01:16:58;;;;;;;4.75;2.55;;;13.80;75.90;;;;;;5055862;28;20036;-83
2022/10/08 01:19:35;;;;;;;7.90;3.20;;;13.80;75.60;;;;;;5071450;28;20502;-83
2022/10/08 01:22:20;;;;;;;5.22;2.92;;;13.80;75.80;;;;;;5060316;28;20025;-82
2022/10/08 01:27:43;;;;;;;5.57;2.75;;;13.80;76.00;;;;;;5095952;28;20035;-83
2022/10/08 01:30:14;;;;;;;4.88;2.45;;;13.90;75.90;;;;;;5059874;28;20497;-82
2022/10/08 01:33:11;;;;;;;7.30;3.05;;;13.90;75.80;;;;;;5056145;28;20436;-83
2022/10/08 01:35:43;;;;;;;8.23;2.67;;;13.90;75.80;;;;;;5055330;28;20400;-83
2022/10/08 01:38:15;;;;;;;5.43;3.20;;;13.90;76.30;;;;;;5055858;28;20044;-82
2022/10/08 01:40:44;;;;;;;4.82;2.65;;;13.90;75.90;;;;;;5054744;28;20407;-83
2022/10/08 01:43:11;;;;;;;9.43;3.28;;;13.90;76.20;;;;;;5055980;28;20024;-83
2022/10/08 01:45:45;;;;;;;9.90;3.03;;;13.90;75.90;;;;;;5070823;28;20057;-83
2022/10/08 01:48:17;;;;;;;5.28;2.70;;;13.90;76.10;;;;;;5069387;28;20040;-82
2022/10/08 01:50:52;;;;;;;6.50;3.00;;;13.90;76.20;;;;;;5055606;28;20058;-83
2022/10/08 01:53:25;;;;;;;4.22;2.88;;;13.90;76.30;;;;;;5070546;28;20021;-82
2022/10/08 01:55:53;;;;;;;8.38;2.35;;;14.00;76.10;;;;;;5070714;28;20078;-82
2022/10/08 01:58:27;;;;;;;6.95;2.50;;;14.00;76.10;;;;;;5070441;28;20070;-82
2022/10/08 02:00:55;;;;;;;6.20;2.80;;;13.90;76.30;;;;;;5070721;28;20472;-82
2022/10/08 02:03:21;;;;;;;5.57;3.08;;;13.90;76.50;;;;;;5055194;28;20074;-83
2022/10/08 02:05:50;;;;;;;5.40;2.72;;;13.90;76.60;;;;;;5055516;28;20029;-82
2022/10/08 02:08:16;;;;;;;7.75;2.60;;;14.00;76.70;;;;;;5055173;28;20056;-82
2022/10/08 02:10:42;;;;;;;7.45;2.60;;;14.00;76.60;;;;;;5054387;28;20035;-82
2022/10/08 02:13:08;;;;;;;7.43;3.03;;;13.90;76.40;;;;;;5055352;28;20021;-82
2022/10/08 02:16:10;;;;;;;11.65;2.92;;;14.00;76.50;;;;;;5054844;28;20033;-82
2022/10/08 02:19:01;;;;;;;5.47;3.30;;;13.90;76.70;;;;;;5055144;28;20044;-82
2022/10/08 02:21:27;;;;;;;10.18;3.30;;;13.90;77.00;;;;;;5055029;28;20036;-82
2022/10/08 02:23:59;;;;;;;4.60;2.83;;;14.00;76.80;;;;;;5092138;28;20069;-82
2022/10/08 02:26:39;;;;;;;7.78;3.42;;;13.90;76.60;;;;;;5076719;28;20037;-83
2022/10/08 02:29:36;;;;;;;5.80;3.50;;;14.00;76.30;;;;;;5055166;28;20020;-82
2022/10/08 02:32:13;;;;;;;9.82;3.40;;;13.90;76.40;;;;;;5047928;28;20037;-82
2022/10/08 02:34:56;;;;;;;3.88;2.85;;;13.90;76.80;;;;;;5066126;28;20048;-82
2022/10/08 02:37:30;;;;;;;6.25;3.00;;;14.00;76.70;;;;;;5067866;28;20083;-82
2022/10/08 02:40:01;;;;;;;6.55;2.92;;;14.00;76.60;;;;;;5055305;28;20128;-82
2022/10/08 02:42:28;;;;;;;8.60;3.45;;;14.00;76.60;;;;;;5070554;28;20116;-82
2022/10/08 02:45:16;;;;;;;5.75;3.20;;;14.00;76.80;;;;;;5070552;28;20079;-83
2022/10/08 02:47:44;;;;;;;5.43;3.15;;;14.00;77.00;;;;;;5053048;28;20051;-82
2022/10/08 02:50:14;;;;;;;7.05;2.92;;;14.00;76.10;;;;;;5054805;28;20029;-82
2022/10/08 02:52:43;;;;;;;7.10;3.28;;;14.00;76.90;;;;;;5053042;28;20032;-82
2022/10/08 02:55:19;;;;;;;8.25;3.00;;;14.00;76.50;;;;;;5053525;28;20064;-82
2022/10/08 02:57:53;;;;;;;7.35;3.15;;;14.00;77.00;;;;;;5054180;28;20051;-82
2022/10/08 03:00:19;;;;;;;4.82;3.03;;;14.00;77.30;;;;;;5054993;28;20039;-82
2022/10/08 03:02:57;;;;;;;7.78;3.20;;;14.00;77.30;;;;;;5054710;28;20025;-82
2022/10/08 03:05:23;;;;;;;8.57;3.15;;;14.00;77.70;;;;;;5054960;28;20037;-82
2022/10/08 03:07:50;;;;;;;5.00;2.45;;;14.00;78.00;;;;;;5073418;28;20029;-82
2022/10/08 03:10:18;;;;;;;8.55;3.35;;;14.00;78.30;;;;;;5073542;28;20116;-82
2022/10/08 03:12:44;;;;;;;5.65;2.67;;;14.00;78.00;;;;;;5057425;28;20100;-82
2022/10/08 03:15:10;;;;;;;5.97;2.55;;;14.00;78.30;;;;;;5058494;28;20118;-82
2022/10/08 03:17:40;;;;;;;4.70;2.53;;;14.00;78.30;;;;;;5073316;28;20573;-82
2022/10/08 03:20:07;;;;;;;;;;;14.00;78.10;;;;;;5072793;28;20028;-82
2022/10/08 03:22:33;;;;;;;2.80;2.17;;;14.00;78.50;;;;;;5083848;28;19919;-82
2022/10/08 03:24:59;;;;;;;8.20;2.60;;;14.10;78.60;;;;;;5070022;28;20385;-82
2022/10/08 03:27:25;;;;;;;3.72;2.20;;;14.00;78.40;;;;;;5073287;28;20041;-82
2022/10/08 03:29:55;;;;;;;4.63;2.28;;;14.00;78.30;;;;;;5073093;28;20433;-82
2022/10/08 03:32:22;;;;;;;6.53;2.42;;;14.00;78.70;;;;;;5056233;28;20139;-82
2022/10/08 03:34:48;;;;;;;6.50;2.25;;;14.00;79.00;;;;;;5057947;28;20100;-82
2022/10/08 03:37:13;;;;;;;7.07;2.33;;;14.00;79.00;;;;;;5058011;28;20114;-82
2022/10/08 03:39:39;;;;;;;4.47;2.17;;;14.10;79.00;;;;;;5056355;28;20463;-82
2022/10/08 03:42:04;;;;;;;4.32;1.88;;;14.10;78.90;;;;;;5058024;28;20025;-82
2022/10/08 03:44:30;;;;;;;4.78;2.28;;;14.10;79.20;;;;;;5072141;28;20029;-82
2022/10/08 03:46:58;;;;;;;8.90;2.30;;;14.10;79.40;;;;;;5057385;28;20036;-82
2022/10/08 03:49:24;;;;;;;5.47;2.13;;;14.10;78.90;;;;;;5055627;28;20468;-82
2022/10/08 03:51:49;;;;;;;4.38;2.28;;;14.10;78.90;;;;;;5072934;28;20090;-82
2022/10/08 03:54:15;;;;;;;4.93;2.00;;;14.20;79.10;;;;;;5057464;28;20029;-82
2022/10/08 03:56:41;;;;;;;3.53;1.85;;;14.10;79.30;;;;;;5056165;28;20028;-82
2022/10/08 03:59:06;;;;;;;4.10;2.00;;;14.20;79.50;;;;;;5057628;28;20191;-82
2022/10/08 04:01:32;;;;;;;3.00;1.90;;;14.10;79.40;;;;;;5057221;28;20059;-82
2022/10/08 04:03:58;;;;;;;6.07;2.10;;;14.10;79.60;;;;;;5056034;28;20033;-82
2022/10/08 04:06:23;;;;;;;5.50;2.00;;;14.20;79.70;;;;;;5056975;28;20656;-81
2022/10/08 04:08:49;;;;;;;6.88;2.20;;;14.20;79.70;;;;;;5072466;28;20032;-82
2022/10/08 04:11:19;;;;;;;5.22;2.15;;;14.20;79.70;;;;;;5057161;28;20068;-82
2022/10/08 04:13:44;;;;;;;4.22;2.00;;;14.20;79.30;;;;;;5057037;28;20028;-82
2022/10/08 04:16:12;;;;;;;6.35;2.22;;;14.20;79.90;;;;;;5056793;28;20020;-82
2022/10/08 04:18:39;;;;;;;8.82;2.15;;;14.20;79.90;;;;;;5057349;28;20053;-82
2022/10/08 04:21:13;;;;;;;3.13;2.15;;;14.20;79.60;;;;;;5057135;28;20361;-82
2022/10/08 04:23:40;;;;;;;7.55;2.60;;;14.20;80.20;;;;;;5088823;28;20028;-82
2022/10/08 04:26:07;;;;;;;4.50;2.63;;;14.20;80.30;;;;;;5080221;28;20021;-82
2022/10/08 04:28:35;;;;;;;7.68;2.22;;;14.20;80.30;;;;;;5071643;28;20089;-82
2022/10/08 04:31:03;;;;;;;8.20;2.72;;;14.20;79.80;;;;;;5070699;28;20059;-82
2022/10/08 04:33:31;;;;;;;9.52;2.80;;;14.20;79.90;;;;;;5072232;28;20021;-82
2022/10/08 04:35:57;;;;;;;9.10;3.13;;;14.10;79.50;;;;;;5070755;28;20392;-82
2022/10/08 04:38:27;;;;;;;7.70;2.85;;;14.10;79.80;;;;;;5056688;28;20044;-82
2022/10/08 04:41:09;;;;;;;7.23;3.93;;;14.10;79.80;;;;;;5056394;28;20482;-82
2022/10/08 04:43:43;;;;;;;6.82;3.10;;;14.00;79.90;;;;;;5056615;28;20029;-82
2022/10/08 04:46:11;;;;;;;3.97;2.92;;;14.00;80.00;;;;;;5054724;28;20091;-82
2022/10/08 04:48:38;;;;;;;5.57;2.53;;;14.00;79.90;;;;;;5071208;28;20052;-83
2022/10/08 04:51:05;;;;;;;5.75;3.03;;;14.00;79.50;;;;;;5070589;28;20511;-82
2022/10/08 04:53:32;;;;;;;5.40;2.67;;;14.00;79.40;;;;;;5056471;28;21118;-82
2022/10/08 04:56:10;;;;;;;9.32;3.35;;;14.00;79.60;;;;;;5056396;28;20025;-82
2022/10/08 04:58:36;;;;;;;7.43;3.70;;;14.00;79.50;;;;;;5056130;28;20642;-82
2022/10/08 05:01:07;;;;;;;7.60;3.55;;;14.00;79.30;;;;;;5057348;28;20079;-82
2022/10/08 05:03:41;;;;;;;11.00;3.92;;;14.00;79.70;;;;;;5072355;28;20020;-82
2022/10/08 05:06:07;;;;;;;8.52;3.38;;;14.00;79.80;;;;;;5058383;28;20040;-82
2022/10/08 05:08:34;;;;;;;4.97;3.45;;;14.00;80.10;;;;;;5075386;28;20025;-82
2022/10/08 05:11:00;;;;;;;2.70;2.35;;;14.00;79.90;;;;;;5063319;28;20029;-82
2022/10/08 05:13:26;;;;;;;6.03;3.25;;;14.00;80.30;;;;;;5076332;28;20103;-82
2022/10/08 05:15:52;;;;;;;6.97;3.53;;;14.00;80.10;;;;;;5075007;28;20021;-82
2022/10/08 05:18:18;;;;;;;7.13;3.53;;;14.00;80.10;;;;;;5056498;28;20029;-82
2022/10/08 05:20:43;;;;;;;6.43;3.42;;;14.00;80.00;;;;;;5072387;28;20020;-82
2022/10/08 05:23:09;;;;;;;11.75;3.63;;;14.00;80.10;;;;;;5095430;28;20035;-83
2022/10/08 05:25:35;;;;;;;4.97;3.05;;;14.00;80.00;;;;;;5096858;28;20074;-82
2022/10/08 05:28:02;;;;;;;7.70;3.25;;;14.00;79.90;;;;;;5095837;28;20035;-82
2022/10/08 05:30:27;;;;;;;5.28;2.97;;;14.00;80.10;;;;;;5080451;28;20060;-83
2022/10/08 05:32:53;;;;;;;7.70;3.10;;;14.00;80.10;;;;;;5055934;28;20036;-83
2022/10/08 05:35:22;;;;;;;16.05;3.40;;;14.00;80.00;;;;;;5054903;28;20087;-82
2022/10/08 05:37:48;;;;;;;5.22;2.78;;;14.00;80.10;;;;;;5071424;28;20031;-82
2022/10/08 05:40:13;;;;;;;9.15;2.88;;;14.00;80.20;;;;;;5076114;28;20112;-82
2022/10/08 05:42:39;;;;;;;9.07;3.05;;;14.00;80.50;;;;;;5075925;28;20032;-82
2022/10/08 05:45:05;;;;;;;4.70;2.72;;;14.00;80.30;;;;;;5075705;28;20041;-82
2022/10/08 05:47:32;;;;;;;5.03;2.85;;;14.00;79.80;;;;;;5055852;28;20065;-83
2022/10/08 05:49:57;;;;;;;5.80;2.33;;;14.00;80.10;;;;;;5071121;28;20028;-81
2022/10/08 05:52:25;;;;;;;6.45;2.45;;;14.00;80.10;;;;;;5068167;28;20016;-79
2022/10/08 05:54:51;;;;;;;6.75;3.08;;;14.00;80.10;;;;;;5075514;28;20704;-78
2022/10/08 05:57:17;;;;;;;6.43;2.53;;;14.00;79.70;;;;;;5072792;28;20044;-77
2022/10/08 05:59:42;;;;;;;6.07;2.70;;;14.00;79.80;;;;;;5055315;28;20052;-78
2022/10/08 06:02:09;;;;;;;6.70;2.65;;;14.00;79.90;;;;;;5055050;28;20067;-78
2022/10/08 06:04:35;;;;;;;8.05;3.10;;;14.00;79.80;;;;;;5055376;28;20059;-77
2022/10/08 06:07:01;;;;;;;4.82;3.03;;;13.90;79.90;;;;;;5061182;28;20071;-78
2022/10/08 06:09:26;;;;;;;6.78;2.60;;;13.90;80.00;;;;;;5055100;28;20021;-77
2022/10/08 06:11:52;;;;;;;4.25;2.45;;;13.90;80.00;;;;;;5058717;28;20024;-79
2022/10/08 06:14:23;;;;;;;7.53;3.50;;;13.90;80.00;;;;;;5055455;28;20075;-77
2022/10/08 06:16:48;;;;;;;5.60;2.67;;;13.80;80.10;;;;;;5054918;28;20043;-78
2022/10/08 06:19:14;;;;;;;6.82;3.38;;;13.80;80.10;;;;;;5074097;28;20029;-77
2022/10/08 06:21:40;;;;;;;8.55;3.63;;;13.80;80.00;;;;;;5074395;28;20068;-80
2022/10/08 06:24:09;;;;;;;7.05;3.38;;;13.80;80.00;;;;;;5074550;28;20084;-75
2022/10/08 06:26:37;;;;;;;6.28;2.78;;;13.80;79.90;;;;;;5061694;28;20032;-75
2022/10/08 06:29:09;;;;;;;7.50;3.20;;;13.80;79.70;;;;;;5072951;28;20033;-75
2022/10/08 06:31:35;;;;;;;8.38;3.03;;;13.70;79.40;;;;;;5072887;28;20071;-75
2022/10/08 06:34:03;;;;;;;11.55;2.97;;;13.70;79.90;;;;;;5074877;28;20506;-76
2022/10/08 06:36:28;;;;;;;7.85;3.47;;;13.70;79.30;;;;;;5075028;28;20028;-77
2022/10/08 06:38:59;;;;;;;8.52;3.47;;;13.70;79.40;;;;;;5062908;28;20044;-75
2022/10/08 06:41:25;;;;;;;;;;;13.70;79.80;;;;;;5059203;28;20032;-78
2022/10/08 06:43:51;;;;;;;11.13;4.00;;;13.70;79.50;;;;;;5059069;28;20363;-76
2022/10/08 06:46:18;;;;;;;9.35;2.95;;;13.80;79.30;;;;;;5058552;28;20063;-77
2022/10/08 06:48:44;;;;;;;8.13;3.22;;;13.80;79.60;;;;;;5069248;28;20072;-77
2022/10/08 06:51:12;;;;;;;5.07;3.63;;;13.70;79.70;;;;;;5074066;28;20021;-81
2022/10/08 06:53:39;;;;;;;5.45;2.80;;;13.70;79.90;;;;;;5068879;28;20095;-77
2022/10/08 06:56:09;;;;;;;5.70;2.80;;;13.80;80.00;;;;;;5066003;28;20056;-77
2022/10/08 06:58:36;;;;;;;7.18;2.85;;;13.80;80.00;;;;;;5072294;28;20025;-78
2022/10/08 07:01:11;;;;;;;5.13;2.78;;;13.80;79.90;;;;;;5062526;28;20094;-79
2022/10/08 07:03:37;;;;;;;3.38;2.58;;;13.90;80.20;;;;;;5066416;28;20037;-78
2022/10/08 07:06:06;;;;;;;8.27;2.97;;;13.90;80.30;;;;;;5087057;28;20479;-78
2022/10/08 07:08:31;;;;;;;9.90;3.30;;;13.90;80.00;;;;;;5076137;28;20510;-78
2022/10/08 07:11:12;;;;;;;5.78;3.08;;;14.00;79.40;;;;;;5073283;28;20635;-78
2022/10/08 07:13:39;;;;;;;9.07;3.45;;;14.10;79.10;;;;;;5091618;28;20097;-79
2022/10/08 07:16:08;;;;;;;3.42;2.78;;;14.20;79.30;;;;;;5064034;28;20072;-78
2022/10/08 07:18:34;;;;;;;6.85;2.75;;;14.30;79.10;;;;;;5068244;28;20159;-78
2022/10/08 07:21:00;;;;;;;10.73;2.90;;;14.30;79.30;;;;;;5075265;28;20494;-78
2022/10/08 07:23:27;;;;;;;5.72;2.72;;;14.30;79.20;;;;;;5079011;28;20036;-77
2022/10/08 07:26:23;;;;;;;9.48;2.53;;;14.40;79.30;;;;;;5072919;28;20068;-77
2022/10/08 07:28:57;;;;;;;10.07;2.95;;;14.50;79.10;;;;;;5090314;28;20487;-79
2022/10/08 07:31:28;;;;;;;4.55;2.65;;;14.50;78.70;;;;;;5071607;28;20106;-82
2022/10/08 07:33:55;;;;;;;6.93;2.50;;;14.50;78.90;;;;;;5073723;28;20025;-77
2022/10/08 07:36:25;;;;;;;4.13;2.20;;;14.60;78.80;;;;;;5084909;22;20072;-78
2022/10/08 07:38:54;;;;;;;;;;;14.60;79.00;;;;;;5095738;28;20055;-77
2022/10/08 07:41:20;;;;;;;8.18;2.10;;;14.60;78.70;;;;;;5094841;28;19908;-78
2022/10/08 07:43:50;;;;;;;4.70;2.30;;;14.60;79.00;;;;;;5096936;28;20034;-77
2022/10/08 07:46:16;;;;;;;;;;;14.70;78.90;;;;;;5098024;28;20069;-78
2022/10/08 07:48:42;;;;;;;6.70;2.35;;;14.70;79.10;;;;;;5096067;28;20335;-77
2022/10/08 07:51:12;;;;;;;7.45;3.90;;;14.90;78.90;;;;;;5096264;28;20028;-77
2022/10/08 07:53:39;;;;;;;4.53;2.67;;;15.00;79.10;;;;;;5079486;28;20050;-82
2022/10/08 07:56:06;;;;;;;7.53;2.30;;;15.20;78.70;;;;;;5091883;28;20565;-77
2022/10/08 07:58:32;;;;;;;7.32;2.17;;;15.30;77.90;;;;;;5100142;28;20032;-77
2022/10/08 08:00:59;;;;;;;6.60;2.42;;;15.30;77.90;;;;;;5078138;28;20065;-76
2022/10/08 08:03:25;;;;;;;4.72;1.75;;;15.30;77.50;;;;;;5071785;28;20696;-76
2022/10/08 08:05:52;;;;;;;4.47;2.05;;;15.50;77.60;;;;;;5095101;28;20518;-76
2022/10/08 08:08:23;;;;;;;5.72;1.92;;;15.50;77.30;;;;;;5092811;28;20024;-76
2022/10/08 08:10:55;;;;;;;5.15;1.80;;;15.50;77.10;;;;;;5076077;28;20082;-76
2022/10/08 08:13:21;;;;;;;11.43;2.30;;;15.60;77.30;;;;;;5093383;28;20024;-76
2022/10/08 08:15:54;;;;;;;7.13;2.05;;;15.60;77.00;;;;;;5093827;28;20035;-76
2022/10/08 08:18:19;;;;;;;4.05;2.15;;;15.60;77.10;;;;;;5074843;28;20519;-76
2022/10/08 08:20:45;;;;;;;6.78;1.60;;;15.60;76.80;;;;;;5092176;28;20059;-76
2022/10/08 08:23:11;;;;;;;4.30;1.70;;;15.50;77.00;;;;;;5049619;28;20403;-76
2022/10/08 08:25:36;;;;;;;4.68;1.63;;;15.50;77.10;;;;;;5091534;28;20039;-76
2022/10/08 08:28:02;;;;;;;11.25;1.65;;;15.50;77.00;;;;;;5094671;28;20024;-76
2022/10/08 08:30:27;;;;;;;3.85;1.20;;;15.50;77.30;;;;;;5077467;28;20024;-76
2022/10/08 08:32:53;;;;;;;3.95;1.20;;;15.50;77.20;;;;;;5094146;28;20024;-76
2022/10/08 08:35:19;;;;;;;4.90;1.42;;;15.40;77.40;;;;;;5093162;28;20028;-76
2022/10/08 08:37:44;;;;;;;4.15;1.52;;;15.40;77.60;;;;;;5095777;28;20058;-76
2022/10/08 08:40:10;;;;;;;4.60;1.52;;;15.40;77.70;;;;;;5078973;28;20055;-76
2022/10/08 08:42:53;;;;;;;5.75;1.38;;;15.40;77.90;;;;;;5076823;28;20558;-76
2022/10/08 08:45:34;;;;;;;8.52;1.70;;;15.50;77.40;;;;;;5089093;28;20500;-76
2022/10/08 08:48:21;;;;;;;7.72;1.77;;;15.50;77.50;;;;;;5091264;28;20028;-76
2022/10/08 08:50:49;;;;;;;7.80;1.15;;;15.50;77.50;;;;;;5076536;28;20051;-76
2022/10/08 08:53:16;;;;;;;9.65;1.73;;;15.50;77.60;;;;;;5096331;28;20020;-76
2022/10/08 08:55:45;;;;;;;8.15;1.83;;;15.60;77.10;;;;;;5086710;28;20089;-76
2022/10/08 08:58:39;;;;;;;9.02;1.40;;;15.60;77.30;;;;;;5093269;28;20446;-76
2022/10/08 09:01:07;;;;;;;8.27;1.70;;;15.60;77.70;;;;;;5095253;28;20079;-76
2022/10/08 09:04:05;;;;;;;6.75;1.33;;;15.70;77.70;;;;;;5074787;28;20046;-76
2022/10/08 09:06:34;;;;;;;6.10;1.30;;;15.70;77.90;;;;;;5071749;28;20043;-77
2022/10/08 09:09:06;;;;;;;7.97;1.35;;;15.80;77.50;;;;;;5090043;28;20052;-76
2022/10/08 09:11:32;;;;;;;6.93;1.55;;;15.80;77.30;;;;;;5076725;28;20039;-76
2022/10/08 09:14:13;;;;;;;6.22;1.35;;;15.80;76.80;;;;;;5092090;28;20438;-77
2022/10/08 09:16:39;;;;;;;6.40;1.30;;;15.80;76.40;;;;;;5093958;28;20383;-78
2022/10/08 09:19:05;;;;;;;6.88;1.20;;;15.90;76.40;;;;;;5077895;28;20028;-76
2022/10/08 09:21:32;;;;;;;5.25;1.05;;;16.00;76.00;;;;;;5095053;28;20024;-75
2022/10/08 09:23:59;;;;;;;5.68;1.17;;;16.00;76.10;;;;;;5089059;28;20056;-78
2022/10/08 09:26:34;;;;;;;10.85;1.40;;;16.10;76.10;;;;;;5094904;28;20024;-79
2022/10/08 09:29:02;;;;;;;5.45;1.40;;;16.10;75.40;;;;;;5095553;28;20552;-78
2022/10/08 09:31:44;;;;;;;11.05;1.30;;;16.10;75.60;;;;;;5075393;28;20024;-77
2022/10/08 09:34:09;;;;;;;5.55;1.00;;;16.00;75.50;;;;;;5089241;28;20021;-77
2022/10/08 09:36:40;;;;;;;7.85;1.33;;;16.10;74.90;;;;;;5087606;28;20130;-77
2022/10/08 09:39:19;;;;;;;10.55;1.50;;;16.20;73.80;;;;;;5095419;28;20436;-77
2022/10/08 09:41:46;;;;;;;3.10;0.90;;;16.30;73.40;;;;;;5076254;28;20498;-77
2022/10/08 09:44:22;;;;;;;4.57;1.10;;;16.30;73.10;;;;;;5099101;28;20069;-77
2022/10/08 09:47:02;;;;;;;6.50;0.88;;;16.40;72.50;;;;;;5085793;28;20494;-77
2022/10/08 09:49:32;;;;;;;7.53;0.93;;;16.50;71.90;;;;;;5080678;28;20020;-77
2022/10/08 09:52:18;;;;;;;3.70;0.80;;;16.60;71.60;;;;;;5091206;28;20024;-77
2022/10/08 09:54:59;;;;;;;5.20;1.02;;;16.70;71.00;;;;;;5075899;28;20039;-77
2022/10/08 09:57:25;;;;;;;8.00;0.90;;;16.70;70.20;;;;;;5093511;28;20089;-77
2022/10/08 09:59:58;;;;;;;4.20;1.02;;;16.70;69.10;;;;;;5090810;28;20019;-80
2022/10/08 10:02:27;;;;;;;5.18;1.05;;;16.90;68.50;;;;;;5094506;28;20024;-80
2022/10/08 10:04:54;;;;;;;6.18;1.25;;;17.10;67.70;;;;;;5092299;28;20103;-80
2022/10/08 10:07:22;;;;;;;7.40;1.30;;;17.20;67.00;;;;;;5091956;28;20120;-77
2022/10/08 10:09:55;;;;;;;8.30;1.30;;;17.20;66.50;;;;;;5076483;28;20024;-77
2022/10/08 10:12:28;;;;;;;5.75;1.27;;;17.30;66.80;;;;;;5092428;28;20073;-77
2022/10/08 10:15:02;;;;;;;7.68;1.42;;;17.30;66.80;;;;;;5095748;28;20023;-77
2022/10/08 10:17:36;;;;;;;8.85;1.02;;;17.30;65.30;;;;;;5098799;28;20105;-77
2022/10/08 10:20:16;;;;;;;5.82;0.93;;;17.40;66.40;;;;;;5066416;28;20055;-76
2022/10/08 10:22:46;;;;;;;2.75;0.93;;;17.50;65.80;;;;;;5074415;28;20035;-77
2022/10/08 10:25:20;;;;;;;6.43;1.23;;;17.60;64.70;;;;;;5085901;28;20024;-77
2022/10/08 10:27:53;;;;;;;4.93;1.02;;;17.60;65.10;;;;;;5072413;28;20032;-78
2022/10/08 10:30:24;;;;;;;10.40;1.42;;;17.70;64.60;;;;;;5097904;28;20116;-80
2022/10/08 10:32:52;;;;;;;2.97;0.52;;;17.80;64.10;;;;;;5102074;28;20067;-81
2022/10/08 10:35:23;;;;;;;8.38;1.05;;;17.90;63.50;;;;;;5095124;28;20032;-77
2022/10/08 10:38:11;;;;;;;7.63;1.02;;;17.90;63.30;;;;;;5098840;28;20536;-77
2022/10/08 10:41:00;;;;;;;7.38;1.30;;;17.70;61.80;;;;;;5084015;28;20050;-76
2022/10/08 10:43:37;;;;;;;4.18;1.05;;;17.40;62.70;;;;;;5101618;28;20082;-76
2022/10/08 10:46:17;;;;;;;3.38;0.63;;;17.30;61.90;;;;;;5082390;28;20123;-79
2022/10/08 10:48:43;;;;;;;4.20;0.65;;;17.40;61.70;;;;;;5087285;28;20032;-77
2022/10/08 10:51:38;;;;;;;4.20;0.70;;;17.50;61.10;;;;;;5080650;28;20118;-79
2022/10/08 10:54:15;;;;;;;4.97;0.85;;;17.60;60.90;;;;;;5080412;28;20039;-80
2022/10/08 10:56:54;;;;;;;7.65;1.00;;;17.70;61.30;;;;;;5085723;28;20111;-80
2022/10/08 10:59:28;;;;;;;3.47;0.90;;;17.90;61.80;;;;;;5078293;28;20028;-79
2022/10/08 11:02:41;;;;;;;5.78;1.02;;;18.00;62.00;;;;;;5091594;28;20556;-83
2022/10/08 11:05:35;;;;;;;3.60;1.13;;;18.10;60.20;;;;;;5038275;28;20080;-76
2022/10/08 11:08:03;;;;;;;4.25;1.00;;;18.10;60.00;;;;;;5059910;28;20508;-85
2022/10/08 11:11:07;;;;;;;7.72;0.85;;;18.10;59.00;;;;;;5079773;28;20495;-80
2022/10/08 11:13:43;;;;;;;8.00;1.20;;;18.10;58.70;;;;;;5074095;28;21260;-83
2022/10/08 11:16:18;;;;;;;2.30;0.68;;;18.20;58.50;;;;;;5096622;28;20020;-78
2022/10/08 11:18:52;;;;;;;1.30;0.75;;;18.30;58.00;;;;;;5094861;28;20054;-80
2022/10/08 11:21:29;;;;;;;5.43;1.23;;;18.50;56.90;;;;;;5091173;28;20055;-79
2022/10/08 11:24:07;;;;;;;4.57;1.20;;;18.60;56.90;;;;;;5094293;28;20112;-79
2022/10/08 11:26:43;;;;;;;5.28;0.80;;;18.80;57.20;;;;;;5089012;28;20038;-79
2022/10/08 11:29:50;;;;;;;6.22;2.05;;;19.00;53.90;;;;;;5085708;28;20016;-79
2022/10/08 11:32:17;;;;;;;5.13;0.90;;;19.00;55.30;;;;;;5095070;28;20399;-80
2022/10/08 11:35:12;;;;;;;6.25;0.65;;;18.80;55.70;;;;;;5072928;28;20016;-79
2022/10/08 11:38:07;;;;;;;6.60;1.05;;;18.60;56.00;;;;;;5064323;28;20036;-80
2022/10/08 11:41:08;;;;;;;5.47;0.70;;;18.30;57.20;;;;;;5076970;28;20040;-79
2022/10/08 11:43:44;;;;;;;4.53;0.88;;;18.00;58.60;;;;;;5048006;28;20043;-79
2022/10/08 11:46:30;;;;;;;5.63;0.80;;;17.90;59.20;;;;;;5095973;28;20046;-79
2022/10/08 11:49:01;;;;;;;2.60;0.75;;;18.00;58.80;;;;;;5095686;28;20020;-79
2022/10/08 11:51:30;;;;;;;5.15;0.90;;;18.10;58.10;;;;;;5077102;28;20081;-79
2022/10/08 11:54:27;;;;;;;3.55;1.30;;;18.40;57.00;;;;;;5096579;28;20388;-79
2022/10/08 11:57:34;;;;;;;2.25;0.73;;;18.60;56.00;;;;;;5067344;28;20031;-80
2022/10/08 12:00:11;;;;;;;3.67;0.75;;;18.70;54.20;;;;;;5093180;28;20026;-81
2022/10/08 12:02:40;;;;;;;5.32;1.58;;;18.60;52.50;;;;;;5097520;28;20422;-78
2022/10/08 12:05:43;;;;;;;2.78;0.60;;;18.30;53.80;;;;;;5075287;28;20503;-77
2022/10/08 12:08:09;;;;;;;2.13;0.82;;;18.20;55.40;;;;;;5072290;28;20066;-78
2022/10/08 12:10:37;;;;;;;4.38;0.75;;;18.30;55.60;;;;;;5096914;28;20423;-78
2022/10/08 12:13:27;;;;;;;5.10;1.08;;;18.30;56.00;;;;;;5081546;28;20052;-79
2022/10/08 12:15:54;;;;;;;6.45;1.20;;;18.60;55.50;;;;;;5089471;28;20500;-79
2022/10/08 12:18:21;;;;;;;2.60;0.77;;;18.80;54.80;;;;;;5092879;28;20047;-79
2022/10/08 12:21:15;;;;;;;4.15;0.88;;;18.90;54.10;;;;;;5073921;28;20063;-78
2022/10/08 12:23:42;;;;;;;9.00;1.08;;;18.90;54.20;;;;;;5109776;28;20031;-78
2022/10/08 12:26:10;;;;;;;4.13;0.70;;;18.80;54.70;;;;;;5087823;28;20578;-78
2022/10/08 12:28:49;;;;;;;4.57;0.80;;;18.80;54.50;;;;;;5075036;28;20033;-78
2022/10/08 12:31:38;;;;;;;4.72;1.30;;;18.60;55.20;;;;;;5075987;28;20039;-79
2022/10/08 12:34:13;;;;;;;3.28;0.70;;;18.40;56.10;;;;;;5076088;28;20051;-78
2022/10/08 12:36:45;;;;;;;3.17;0.77;;;18.30;55.10;;;;;;5073279;28;20048;-78
2022/10/08 12:39:35;;;;;;;4.22;1.15;;;18.30;55.00;;;;;;5074440;28;20499;-78
2022/10/08 12:42:10;;;;;;;2.47;0.45;;;18.20;54.60;;;;;;5076123;28;20056;-79
2022/10/08 12:44:54;;;;;;;5.55;0.65;;;18.30;52.90;;;;;;5062887;28;20426;-78
2022/10/08 12:47:57;;;;;;;2.38;0.57;;;18.50;52.00;;;;;;5074461;28;20657;-79
2022/10/08 12:50:42;;;;;;;4.53;0.68;;;18.60;51.20;;;;;;5091298;28;20404;-78
2022/10/08 12:53:13;;;;;;;3.45;0.50;;;18.70;51.00;;;;;;5094307;28;20566;-78
2022/10/08 12:55:53;;;;;;;2.22;0.45;;;18.80;50.30;;;;;;5096416;28;20019;-78
2022/10/08 12:58:25;;;;;;;8.55;1.33;;;18.80;49.80;;;;;;5074867;28;20068;-78
2022/10/08 13:00:57;;;;;;;3.72;1.00;;;18.80;50.00;;;;;;5095996;28;20020;-78
2022/10/08 13:03:24;;;;;;;2.55;0.80;;;18.90;50.20;;;;;;5094283;28;20024;-78
2022/10/08 13:05:52;;;;;;;2.53;0.70;;;19.00;48.70;;;;;;5077381;28;20036;-78
2022/10/08 13:08:34;;;;;;;2.47;0.70;;;19.10;47.80;;;;;;5070241;28;20062;-77
2022/10/08 13:11:04;;;;;;;1.90;0.40;;;19.10;47.40;;;;;;5075416;28;20020;-82
2022/10/08 13:13:38;;;;;;;1.80;0.97;;;19.10;45.40;;;;;;5068764;28;20024;-79
2022/10/08 13:16:19;;;;;;;2.85;0.50;;;18.90;45.20;;;;;;5092121;28;20069;-78